Time;durP1;ratioP1;P1;durP2;ratioP2;P2;SDS_P1;SDS_P2;PMS_P1;PMS_P2;Temp;Humidity;BMP_temperature;BMP_pressure;BME280_temperature;BME280_humidity;BME280_pressure;Samples;Min_cycle;Max_cycle;Signal;HPM_P1;HPM_P2
2022/12/19 00:01:15;;;;;;;94.47;50.45;;;;;;;-0.20;100.00;101657.88;5025178;28;20144;-65
2022/12/19 00:03:45;;;;;;;91.35;51.13;;;;;;;-0.15;100.00;101647.75;5024394;28;20021;-65
2022/12/19 00:06:11;;;;;;;91.55;50.00;;;;;;;-0.13;100.00;101634.06;5027129;28;20080;-65
2022/12/19 00:08:39;;;;;;;96.63;49.67;;;;;;;-0.13;100.00;101621.06;5024780;28;20057;-65
2022/12/19 00:11:05;;;;;;;93.03;51.17;;;;;;;-0.14;100.00;101629.66;5026234;28;20048;-66
2022/12/19 00:13:31;;;;;;;97.20;51.25;;;;;;;-0.10;100.00;101620.31;5025367;28;20473;-65
2022/12/19 00:16:03;;;;;;;97.60;51.53;;;;;;;-0.09;100.00;101617.81;5025304;28;20026;-64
2022/12/19 00:18:29;;;;;;;95.05;50.05;;;;;;;-0.10;100.00;101625.53;5025689;28;20068;-65
2022/12/19 00:20:57;;;;;;;100.28;52.13;;;;;;;-0.09;100.00;101628.22;5025000;28;20041;-65
2022/12/19 00:23:22;;;;;;;101.85;51.38;;;;;;;-0.10;100.00;101626.44;5026473;28;20044;-65
2022/12/19 00:25:48;;;;;;;102.75;52.92;;;;;;;-0.08;100.00;101616.13;5022491;28;20473;-66
2022/12/19 00:28:13;;;;;;;89.43;50.33;;;;;;;-0.04;100.00;101619.00;5027021;28;20069;-65
2022/12/19 00:30:38;;;;;;;96.65;51.22;;;;;;;-0.03;100.00;101613.00;5024097;28;20180;-65
2022/12/19 00:33:04;;;;;;;96.22;50.83;;;;;;;-0.02;100.00;101603.50;5025707;28;20030;-65
2022/12/19 00:35:29;;;;;;;98.93;51.10;;;;;;;0.01;100.00;101603.66;5025037;28;20116;-65
2022/12/19 00:37:54;;;;;;;94.35;50.40;;;;;;;0.02;100.00;101605.47;5023342;28;20069;-64
2022/12/19 00:40:20;;;;;;;94.05;50.63;;;;;;;0.07;100.00;101597.94;5026389;28;20087;-65
2022/12/19 00:42:46;;;;;;;100.22;51.50;;;;;;;0.07;100.00;101597.94;5023553;28;20092;-65
2022/12/19 00:45:11;;;;;;;89.43;49.42;;;;;;;0.08;100.00;101590.22;5026721;28;20033;-64
2022/12/19 00:47:37;;;;;;;88.50;48.13;;;;;;;0.15;100.00;101589.78;5023860;28;20029;-64
2022/12/19 00:50:03;;;;;;;87.68;49.28;;;;;;;0.19;100.00;101593.47;5025239;28;20040;-65
2022/12/19 00:52:28;;;;;;;89.20;49.22;;;;;;;0.21;100.00;101593.56;5024955;28;20022;-65
2022/12/19 00:54:53;;;;;;;92.57;50.38;;;;;;;0.19;100.00;101588.28;5023853;28;20026;-65
2022/12/19 00:57:18;;;;;;;85.00;48.17;;;;;;;0.19;100.00;101576.94;5026368;28;20079;-65
2022/12/19 00:59:44;;;;;;;88.70;47.63;;;;;;;0.23;100.00;101573.72;5023196;28;20037;-65
2022/12/19 01:02:09;;;;;;;86.40;47.47;;;;;;;0.24;100.00;101560.81;5025883;28;20485;-65
2022/12/19 01:04:35;;;;;;;87.72;47.80;;;;;;;0.27;100.00;101560.97;5023991;28;20561;-65
2022/12/19 01:07:00;;;;;;;89.80;48.08;;;;;;;0.26;100.00;101574.81;5024563;28;20076;-65
2022/12/19 01:09:25;;;;;;;84.95;47.17;;;;;;;0.30;100.00;101571.56;5025101;28;20088;-65
2022/12/19 01:14:34;;;;;;;88.38;48.05;;;;;;;0.32;100.00;101575.16;5024274;28;20048;-65
2022/12/19 01:17:00;;;;;;;86.47;47.65;;;;;;;0.34;100.00;101573.53;5024605;28;20460;-64
2022/12/19 01:19:26;;;;;;;88.97;48.60;;;;;;;0.34;100.00;101557.03;5023815;28;20057;-65
2022/12/19 01:21:51;;;;;;;87.50;47.60;;;;;;;0.37;100.00;101566.72;5023533;28;20030;-65
2022/12/19 01:24:17;;;;;;;91.22;47.17;;;;;;;0.37;100.00;101551.13;5026132;28;20092;-65
2022/12/19 01:26:43;;;;;;;83.22;46.55;;;;;;;0.38;100.00;101543.41;5022701;28;20030;-65
2022/12/19 01:29:08;;;;;;;87.13;47.78;;;;;;;0.39;100.00;101539.09;5025198;28;20076;-66
2022/12/19 01:31:33;;;;;;;84.55;47.03;;;;;;;0.39;100.00;101539.97;5023395;28;20029;-65
2022/12/19 01:33:59;;;;;;;84.63;48.35;;;;;;;0.40;100.00;101538.28;5024023;28;20034;-64
2022/12/19 01:36:25;;;;;;;85.15;47.03;;;;;;;0.39;100.00;101544.28;5024605;28;20029;-65
2022/12/19 01:38:53;;;;;;;84.03;47.53;;;;;;;0.38;100.00;101539.88;5022867;28;20480;-69
2022/12/19 01:41:18;;;;;;;88.00;48.78;;;;;;;0.37;100.00;101545.94;5025716;28;20040;-74
2022/12/19 01:44:00;;;;;;;81.38;46.90;;;;;;;0.39;100.00;101547.78;5022171;28;20034;-69
2022/12/19 01:46:34;;;;;;;86.82;47.47;;;;;;;0.40;100.00;101539.19;5023045;28;20385;-74
2022/12/19 01:49:01;;;;;;;87.60;47.88;;;;;;;0.39;100.00;101542.56;5023730;28;20156;-69
2022/12/19 01:51:36;;;;;;;87.35;49.63;;;;;;;0.42;100.00;101547.06;5021941;28;20058;-72
2022/12/19 01:54:07;;;;;;;91.05;47.63;;;;;;;0.39;100.00;101539.97;5023682;28;20080;-66
2022/12/19 01:56:37;;;;;;;90.28;47.88;;;;;;;0.39;100.00;101529.56;5023894;28;20026;-68
2022/12/19 01:59:13;;;;;;;94.97;48.15;;;;;;;0.40;100.00;101535.69;5023284;28;20512;-69
2022/12/19 02:01:40;;;;;;;92.13;50.10;;;;;;;0.43;100.00;101539.34;5023316;28;20029;-66
2022/12/19 02:04:06;;;;;;;93.25;47.80;;;;;;;0.47;100.00;101541.31;5022981;28;20436;-67
2022/12/19 02:06:33;;;;;;;93.90;49.95;;;;;;;0.46;100.00;101523.03;5023529;28;20034;-74
2022/12/19 02:08:59;;;;;;;93.95;49.65;;;;;;;0.47;100.00;101530.91;5023830;28;20045;-76
2022/12/19 02:11:25;;;;;;;91.68;48.67;;;;;;;0.49;100.00;101517.97;5022617;28;20045;-73
2022/12/19 02:13:51;;;;;;;97.25;49.80;;;;;;;0.49;100.00;101516.25;5024688;28;20104;-66
2022/12/19 02:16:45;;;;;;;97.93;50.55;;;;;;;0.53;100.00;101501.72;5021054;28;20029;-65
2022/12/19 02:19:37;;;;;;;101.07;51.10;;;;;;;0.55;100.00;101501.81;5024826;28;20100;-65
2022/12/19 02:22:17;;;;;;;96.50;47.25;;;;;;;0.58;100.00;101499.38;5023782;28;20037;-64
2022/12/19 02:25:14;;;;;;;98.90;50.75;;;;;;;0.61;100.00;101495.25;5021689;28;20539;-65
2022/12/19 02:27:59;;;;;;;104.03;51.78;;;;;;;0.65;100.00;101491.09;5024310;28;20037;-64
2022/12/19 02:31:05;;;;;;;95.28;49.28;;;;;;;0.71;100.00;101486.22;5022364;28;20038;-65
2022/12/19 02:33:42;;;;;;;101.25;50.95;;;;;;;0.73;100.00;101482.03;5023465;28;20025;-65
2022/12/19 02:36:44;;;;;;;96.07;50.25;;;;;;;0.81;100.00;101477.22;5022193;28;20101;-65
2022/12/19 02:39:33;;;;;;;94.40;48.73;;;;;;;0.84;100.00;101487.78;5018978;28;20489;-65
2022/12/19 02:42:00;;;;;;;95.35;48.22;;;;;;;0.88;100.00;101476.75;5022451;28;20551;-65
2022/12/19 02:44:39;;;;;;;97.47;47.95;;;;;;;0.94;100.00;101469.25;5023876;28;20498;-65
2022/12/19 02:47:06;;;;;;;97.72;48.90;;;;;;;1.00;100.00;101472.16;5023269;28;20076;-65
2022/12/19 02:49:34;;;;;;;99.32;49.15;;;;;;;1.05;100.00;101469.84;5022587;28;20025;-65
2022/12/19 02:52:12;;;;;;;103.82;49.20;;;;;;;1.07;100.00;101460.38;5022518;28;20064;-64
2022/12/19 02:54:38;;;;;;;101.10;48.30;;;;;;;1.11;100.00;101451.03;5021597;28;20029;-65
2022/12/19 02:57:17;;;;;;;99.18;48.92;;;;;;;1.18;100.00;101456.63;5023107;28;20057;-65
2022/12/19 02:59:52;;;;;;;95.35;45.58;;;;;;;1.25;100.00;101442.19;5021069;28;20038;-66
2022/12/19 03:02:29;;;;;;;98.57;48.40;;;;;;;1.27;100.00;101443.19;5021236;28;20421;-65
2022/12/19 03:05:18;;;;;;;100.80;47.05;;;;;;;1.29;100.00;101441.56;5021738;28;20029;-65
2022/12/19 03:07:54;;;;;;;101.60;47.80;;;;;;;1.33;100.00;101447.84;5020917;28;20033;-65
2022/12/19 03:10:20;;;;;;;98.47;47.60;;;;;;;1.33;100.00;101440.91;5021248;28;20535;-66
2022/12/19 03:13:07;;;;;;;97.63;48.13;;;;;;;1.37;100.00;101440.25;5024310;28;20025;-65
2022/12/19 03:15:33;;;;;;;97.05;47.30;;;;;;;1.41;100.00;101440.41;5022959;28;20037;-65
2022/12/19 03:18:00;;;;;;;99.47;47.67;;;;;;;1.41;100.00;101440.41;5021666;28;20034;-70
2022/12/19 03:20:44;;;;;;;107.60;47.17;;;;;;;1.43;100.00;101438.75;5021973;28;20084;-68
2022/12/19 03:23:11;;;;;;;93.78;43.70;;;;;;;1.50;100.00;101439.16;5021555;28;20037;-70
2022/12/19 03:25:38;;;;;;;95.93;45.40;;;;;;;1.55;100.00;101442.00;5023389;28;20030;-67
2022/12/19 03:28:11;;;;;;;93.65;45.17;;;;;;;1.62;100.00;101424.97;5024559;28;20480;-68
2022/12/19 03:30:40;;;;;;;90.18;44.47;;;;;;;1.69;100.00;101432.25;5026869;28;20026;-73
2022/12/19 03:33:08;;;;;;;83.60;41.60;;;;;;;1.78;100.00;101437.03;5026045;28;20040;-67
2022/12/19 03:35:36;;;;;;;82.70;40.97;;;;;;;1.89;100.00;101431.53;5026497;28;20030;-70
2022/12/19 03:38:04;;;;;;;83.65;41.33;;;;;;;1.98;100.00;101435.41;5026168;28;20032;-68
2022/12/19 03:40:33;;;;;;;80.70;40.47;;;;;;;2.06;100.00;101426.25;5026231;28;20022;-68
2022/12/19 03:43:08;;;;;;;79.28;38.97;;;;;;;2.19;100.00;101422.50;5026500;28;20052;-72
2022/12/19 03:45:40;;;;;;;78.20;38.42;;;;;;;2.30;100.00;101421.31;5026328;28;20032;-74
2022/12/19 03:48:22;;;;;;;74.80;37.20;;;;;;;2.36;100.00;101429.41;5025491;28;20034;-69
2022/12/19 03:51:17;;;;;;;77.72;37.15;;;;;;;2.41;100.00;101427.91;5024116;28;20129;-73
2022/12/19 03:54:03;;;;;;;65.93;34.92;;;;;;;2.58;100.00;101430.44;5027491;28;20033;-71
2022/12/19 03:57:04;;;;;;;68.43;36.67;;;;;;;2.64;100.00;101422.88;5024126;28;20064;-69
2022/12/19 03:59:35;;;;;;;64.25;33.03;;;;;;;2.74;100.00;101422.47;5025443;28;20037;-67
2022/12/19 04:02:02;;;;;;;65.40;34.30;;;;;;;2.87;100.00;101423.00;5025976;28;20100;-72
2022/12/19 04:04:30;;;;;;;66.53;33.63;;;;;;;2.88;100.00;101412.63;5025196;28;20030;-72
2022/12/19 04:06:57;;;;;;;61.65;32.67;;;;;;;2.97;100.00;101409.53;5026763;28;20380;-74
2022/12/19 04:09:23;;;;;;;55.67;30.45;;;;;;;3.08;100.00;101413.50;5024554;28;20478;-72
2022/12/19 04:11:58;;;;;;;59.20;31.17;;;;;;;3.18;100.00;101411.31;5027327;28;20378;-70
2022/12/19 04:14:32;;;;;;;59.17;30.92;;;;;;;3.23;100.00;101422.84;5024529;28;20029;-70
2022/12/19 04:17:23;;;;;;;60.00;32.25;;;;;;;3.28;100.00;101411.78;5025119;28;20040;-69
2022/12/19 04:20:00;;;;;;;54.88;30.42;;;;;;;3.36;100.00;101404.25;5024214;28;20049;-70
2022/12/19 04:22:42;;;;;;;57.97;31.23;;;;;;;3.44;100.00;101402.88;5024461;28;20030;-68
2022/12/19 04:25:12;;;;;;;;;;;;;;;3.48;100.00;101402.19;5024932;28;20104;-70
2022/12/19 04:27:43;;;;;;;52.53;29.60;;;;;;;3.56;100.00;101404.22;5026033;28;19944;-69
2022/12/19 04:30:13;;;;;;;51.53;28.30;;;;;;;3.58;100.00;101400.84;5024354;28;20040;-69
2022/12/19 04:32:43;;;;;;;49.05;27.63;;;;;;;3.61;100.00;101400.06;5026256;28;20153;-68
2022/12/19 04:35:08;;;;;;;48.97;27.98;;;;;;;3.66;100.00;101388.97;5024267;28;20036;-70
2022/12/19 04:37:34;;;;;;;47.72;27.27;;;;;;;3.78;100.00;101385.94;5025336;28;20022;-69
2022/12/19 04:40:00;;;;;;;45.83;25.88;;;;;;;3.83;100.00;101392.28;5025034;28;20061;-69
2022/12/19 04:42:25;;;;;;;46.53;26.10;;;;;;;3.87;100.00;101398.50;5024099;28;20104;-68
2022/12/19 04:44:51;;;;;;;44.65;26.33;;;;;;;3.92;100.00;101383.03;5026621;28;20036;-67
2022/12/19 04:47:16;;;;;;;45.42;27.08;;;;;;;3.93;100.00;101395.25;5023466;28;20080;-67
2022/12/19 04:49:41;;;;;;;44.85;25.95;;;;;;;3.96;100.00;101385.81;5026299;28;20037;-68
2022/12/19 04:52:07;;;;;;;46.33;27.00;;;;;;;3.97;100.00;101384.09;5023957;28;20049;-68
2022/12/19 04:54:32;;;;;;;45.03;25.85;;;;;;;4.04;100.00;101385.22;5024982;28;20044;-69
2022/12/19 04:56:57;;;;;;;43.42;24.90;;;;;;;4.10;100.00;101390.69;5025405;28;20534;-68
2022/12/19 04:59:23;;;;;;;43.22;25.20;;;;;;;4.14;100.00;101397.84;5023624;28;20477;-67
2022/12/19 05:01:48;;;;;;;42.85;25.27;;;;;;;4.16;100.00;101391.81;5026396;28;20079;-67
2022/12/19 05:04:14;;;;;;;45.70;26.05;;;;;;;4.10;100.00;101391.56;5023079;28;20049;-68
2022/12/19 05:06:39;;;;;;;46.67;25.38;;;;;;;4.18;100.00;101395.41;5025684;28;20483;-69
2022/12/19 05:09:04;;;;;;;43.95;25.27;;;;;;;4.17;100.00;101387.50;5024317;28;20540;-68
2022/12/19 05:11:30;;;;;;;46.22;25.90;;;;;;;4.21;100.00;101384.16;5024003;28;20042;-68
2022/12/19 05:13:57;;;;;;;46.53;26.38;;;;;;;4.19;100.00;101384.13;5025579;28;20091;-67
2022/12/19 05:16:22;;;;;;;43.90;24.98;;;;;;;4.25;100.00;101378.22;5022951;28;20022;-67
2022/12/19 05:18:48;;;;;;;43.95;26.75;;;;;;;4.30;100.00;101375.78;5026111;28;20269;-68
2022/12/19 05:21:13;;;;;;;45.13;25.38;;;;;;;4.35;100.00;101385.59;5023318;28;20038;-68
2022/12/19 05:23:39;;;;;;;45.40;27.73;;;;;;;4.30;100.00;101371.44;5025323;28;20485;-68
2022/12/19 05:26:05;;;;;;;43.08;25.27;;;;;;;4.40;100.00;101377.91;5024061;28;20060;-67
2022/12/19 05:28:32;;;;;;;43.28;26.13;;;;;;;4.40;100.00;101380.53;5024030;28;20066;-68
2022/12/19 05:31:03;;;;;;;45.00;25.38;;;;;;;4.46;100.00;101388.59;5024763;28;20150;-74
2022/12/19 05:33:28;;;;;;;43.90;25.85;;;;;;;4.44;100.00;101385.06;5023626;28;20034;-68
2022/12/19 05:35:53;;;;;;;43.42;25.60;;;;;;;4.47;100.00;101386.88;5025742;28;20386;-69
2022/12/19 05:38:19;;;;;;;40.17;24.27;;;;;;;4.59;100.00;101376.88;5022278;28;20026;-68
2022/12/19 05:40:44;;;;;;;42.33;25.23;;;;;;;4.56;100.00;101374.16;5025497;28;20035;-68
2022/12/19 05:43:09;;;;;;;42.22;24.25;;;;;;;4.56;100.00;101370.63;5023207;28;20026;-67
2022/12/19 05:45:38;;;;;;;40.70;23.85;;;;;;;4.62;100.00;101376.09;5024024;28;20117;-72
2022/12/19 05:48:04;;;;;;;40.17;23.60;;;;;;;4.67;100.00;101375.41;5023718;28;20535;-66
2022/12/19 05:50:29;;;;;;;40.83;23.67;;;;;;;4.66;100.00;101365.78;5022708;28;20077;-65
2022/12/19 05:52:55;;;;;;;37.53;21.95;;;;;;;4.73;100.00;101385.22;5024789;28;20026;-66
2022/12/19 05:55:20;;;;;;;39.03;22.05;;;;;;;4.80;100.00;101374.13;5022135;28;20041;-65
2022/12/19 05:57:45;;;;;;;37.85;22.55;;;;;;;4.81;100.00;101375.94;5025226;28;20030;-65
2022/12/19 06:00:11;;;;;;;38.42;22.63;;;;;;;4.86;100.00;101383.94;5022732;28;20080;-65
2022/12/19 06:02:37;;;;;;;37.22;20.95;;;;;;;4.90;100.00;101372.75;5024239;28;20025;-65
2022/12/19 06:05:02;;;;;;;37.17;21.20;;;;;;;4.97;100.00;101390.47;5023578;28;20388;-66
2022/12/19 06:07:29;;;;;;;37.70;21.73;;;;;;;4.92;100.00;101378.03;5022612;28;20424;-65
2022/12/19 06:09:54;;;;;;;35.67;20.58;;;;;;;4.97;100.00;101371.25;5024829;28;20037;-65
2022/12/19 06:12:19;;;;;;;37.40;21.42;;;;;;;4.97;100.00;101364.28;5021666;28;20108;-65
2022/12/19 06:14:45;;;;;;;36.40;20.92;;;;;;;5.00;100.00;101376.59;5024854;28;20026;-65
2022/12/19 06:17:10;;;;;;;36.38;21.08;;;;;;;4.94;100.00;101374.66;5022561;28;20460;-67
2022/12/19 06:19:35;;;;;;;36.08;20.95;;;;;;;5.04;100.00;101373.25;5023570;28;20504;-66
2022/12/19 06:22:01;;;;;;;33.53;18.70;;;;;;;5.15;100.00;101368.38;5023701;28;20025;-65
2022/12/19 06:24:26;;;;;;;32.67;18.42;;;;;;;5.17;100.00;101367.59;5022666;28;20465;-66
2022/12/19 06:26:51;;;;;;;34.08;19.83;;;;;;;5.19;100.00;101367.66;5024731;28;20069;-66
2022/12/19 06:29:17;;;;;;;33.95;20.83;;;;;;;5.15;100.00;101363.13;5021454;28;20033;-69
2022/12/19 06:31:42;;;;;;;33.08;19.50;;;;;;;5.12;100.00;101384.00;5024341;28;20034;-65
2022/12/19 06:34:11;;;;;;;34.40;20.13;;;;;;;5.18;100.00;101378.97;5022396;28;20036;-65
2022/12/19 06:36:36;;;;;;;33.33;19.60;;;;;;;5.21;100.00;101376.44;5022792;28;20021;-65
2022/12/19 06:39:03;;;;;;;34.15;18.80;;;;;;;5.26;100.00;101393.25;5027737;28;20036;-67
2022/12/19 06:44:14;;;;;;;32.60;18.75;;;;;;;5.31;100.00;101375.03;5022862;28;20559;-68
2022/12/19 06:46:40;;;;;;;31.90;18.33;;;;;;;5.34;100.00;101390.88;5028540;28;20380;-66
2022/12/19 06:49:06;;;;;;;31.98;18.67;;;;;;;5.33;100.00;101379.50;5027388;28;20021;-66
2022/12/19 06:51:32;;;;;;;31.80;18.92;;;;;;;5.32;100.00;101384.69;5025676;28;20057;-67
2022/12/19 06:53:57;;;;;;;31.77;18.25;;;;;;;5.37;100.00;101370.91;5026354;28;20468;-65
2022/12/19 06:56:23;;;;;;;32.00;17.67;;;;;;;5.41;100.00;101387.63;5027666;28;20033;-65
2022/12/19 06:58:49;;;;;;;33.25;19.13;;;;;;;5.36;100.00;101386.59;5027506;28;20028;-66
2022/12/19 07:01:19;;;;;;;33.08;19.10;;;;;;;5.35;100.00;101382.19;5025461;28;20038;-66
2022/12/19 07:03:46;;;;;;;31.55;18.58;;;;;;;5.38;100.00;101393.66;5028167;28;20381;-68
2022/12/19 07:06:11;;;;;;;32.67;18.88;;;;;;;5.35;100.00;101383.06;5023181;28;20022;-64
2022/12/19 07:08:37;;;;;;;33.17;18.52;;;;;;;5.43;100.00;101391.19;5026971;28;20080;-65
2022/12/19 07:11:02;;;;;;;32.25;19.20;;;;;;;5.41;100.00;101380.63;5021982;28;20037;-65
2022/12/19 07:13:27;;;;;;;32.35;18.13;;;;;;;5.42;100.00;101378.94;5023033;28;20022;-65
2022/12/19 07:15:55;;;;;;;32.45;19.55;;;;;;;5.44;100.00;101372.00;5028382;28;20164;-66
2022/12/19 07:18:21;;;;;;;33.17;19.67;;;;;;;5.41;100.00;101387.63;5022340;28;20056;-65
2022/12/19 07:20:46;;;;;;;32.10;18.70;;;;;;;5.43;100.00;101390.28;5024715;28;20481;-68
2022/12/19 07:23:16;;;;;;;32.55;18.88;;;;;;;5.39;100.00;101392.81;5024169;28;20030;-65
2022/12/19 07:25:42;;;;;;;30.92;18.10;;;;;;;5.44;100.00;101392.09;5027065;28;20481;-65
2022/12/19 07:28:07;;;;;;;31.70;19.50;;;;;;;5.44;100.00;101392.97;5026961;28;20119;-70
2022/12/19 07:30:33;;;;;;;30.83;18.38;;;;;;;5.44;100.00;101385.09;5025477;28;20171;-66
2022/12/19 07:32:59;;;;;;;33.10;19.38;;;;;;;5.43;100.00;101396.41;5025682;28;20488;-66
2022/12/19 07:35:27;;;;;;;30.63;17.30;;;;;;;5.46;100.00;101401.81;5020852;28;20029;-67
2022/12/19 07:37:52;;;;;;;30.67;17.92;;;;;;;5.45;100.00;101394.75;5008640;28;20426;-66
2022/12/19 07:40:17;;;;;;;30.60;17.92;;;;;;;5.46;100.00;101391.31;5022670;28;20065;-65
2022/12/19 07:42:44;;;;;;;30.25;17.95;;;;;;;5.44;100.00;101394.72;5026465;28;20025;-65
2022/12/19 07:45:10;;;;;;;31.30;17.65;;;;;;;5.40;100.00;101396.31;5022900;28;20069;-66
2022/12/19 07:47:36;;;;;;;31.27;17.45;;;;;;;5.43;100.00;101388.56;5023533;28;20145;-65
2022/12/19 07:50:02;;;;;;;29.20;16.70;;;;;;;5.44;100.00;101390.34;5023775;28;20037;-68
2022/12/19 07:52:27;;;;;;;29.75;17.40;;;;;;;5.44;100.00;101397.34;5020184;28;20137;-66
2022/12/19 07:54:53;;;;;;;30.58;18.08;;;;;;;5.47;100.00;101398.31;5023301;28;20025;-65
2022/12/19 07:57:18;;;;;;;30.25;16.90;;;;;;;5.47;100.00;101397.44;5021838;28;20042;-67
2022/12/19 07:59:45;;;;;;;30.08;17.10;;;;;;;5.46;100.00;101406.13;5020242;28;20025;-65
2022/12/19 08:02:11;;;;;;;27.52;15.55;;;;;;;5.50;100.00;101410.66;5022967;28;20045;-66
2022/12/19 08:04:36;;;;;;;28.40;16.77;;;;;;;5.55;100.00;101422.19;5023353;28;20072;-68
2022/12/19 08:07:02;;;;;;;29.55;16.60;;;;;;;5.46;100.00;101414.91;5024500;28;20489;-66
2022/12/19 08:09:27;;;;;;;27.35;15.82;;;;;;;5.53;100.00;101414.28;5022259;28;20018;-67
2022/12/19 08:11:54;;;;;;;28.25;16.73;;;;;;;5.48;100.00;101407.97;5023568;28;20090;-66
2022/12/19 08:14:20;;;;;;;27.73;15.57;;;;;;;5.48;100.00;101428.06;5023537;28;20092;-65
2022/12/19 08:16:45;;;;;;;29.80;16.33;;;;;;;5.52;100.00;101427.31;5028777;28;20022;-65
2022/12/19 08:19:10;;;;;;;27.88;16.25;;;;;;;5.51;100.00;101426.44;5027923;28;20411;-66
2022/12/19 08:21:36;;;;;;;29.92;16.55;;;;;;;5.53;100.00;101414.28;5026000;28;20053;-67
2022/12/19 08:24:01;;;;;;;28.70;16.40;;;;;;;5.55;100.00;101411.72;5030454;28;20112;-67
2022/12/19 08:26:27;;;;;;;27.60;15.52;;;;;;;5.62;100.00;101408.47;5029147;28;20033;-69
2022/12/19 08:28:54;;;;;;;28.00;15.43;;;;;;;5.65;100.00;101412.88;5024808;28;20079;-67
2022/12/19 08:31:23;;;;;;;28.00;14.68;;;;;;;5.66;100.00;101417.31;5022974;28;20116;-71
2022/12/19 08:33:49;;;;;;;26.73;14.98;;;;;;;5.64;100.00;101426.88;5027513;28;20021;-69
2022/12/19 08:36:17;;;;;;;28.02;15.73;;;;;;;5.64;100.00;101416.38;5023909;28;20030;-72
2022/12/19 08:38:43;;;;;;;26.90;15.05;;;;;;;5.66;100.00;101435.66;5026626;28;20395;-74
2022/12/19 08:41:09;;;;;;;27.20;15.88;;;;;;;5.71;100.00;101424.50;5023865;28;20034;-70
2022/12/19 08:43:35;;;;;;;27.98;15.35;;;;;;;5.69;100.00;101423.53;5027012;28;20037;-71
2022/12/19 08:46:00;;;;;;;24.90;14.20;;;;;;;5.76;100.00;101429.88;5023787;28;20117;-70
2022/12/19 08:48:26;;;;;;;27.90;14.88;;;;;;;5.78;100.00;101429.94;5025830;28;20034;-70
2022/12/19 08:50:56;;;;;;;25.85;14.60;;;;;;;5.83;100.00;101426.63;5024790;28;20386;-71
2022/12/19 08:53:23;;;;;;;25.25;13.63;;;;;;;5.88;100.00;101432.03;5024644;28;20042;-69
2022/12/19 08:56:08;;;;;;;25.27;12.98;;;;;;;5.89;100.00;101429.44;5025733;28;20030;-69
2022/12/19 08:58:34;;;;;;;25.60;13.68;;;;;;;5.93;100.00;101422.59;5023666;28;20037;-70
2022/12/19 09:01:04;;;;;;;26.42;13.93;;;;;;;5.96;100.00;101419.19;5026434;28;20029;-75
2022/12/19 09:03:30;;;;;;;25.77;14.13;;;;;;;5.92;100.00;101434.78;5023038;28;20069;-74
2022/12/19 09:06:01;;;;;;;25.10;13.43;;;;;;;5.94;100.00;101433.13;5023253;28;20033;-73
2022/12/19 09:08:27;;;;;;;25.95;13.75;;;;;;;5.94;100.00;101433.13;5022852;28;20061;-70
2022/12/19 09:11:00;;;;;;;25.60;13.32;;;;;;;5.99;100.00;101427.19;5026009;28;20334;-69
2022/12/19 09:13:27;;;;;;;25.33;12.75;;;;;;;6.01;100.00;101428.97;5022860;28;20030;-69
2022/12/19 09:16:11;;;;;;;23.67;12.88;;;;;;;6.01;100.00;101438.59;5025782;28;20036;-70
2022/12/19 09:18:36;;;;;;;25.08;13.07;;;;;;;5.99;100.00;101440.31;5023659;28;20109;-69
2022/12/19 09:21:02;;;;;;;25.48;13.10;;;;;;;5.98;100.00;101446.38;5026081;28;20053;-73
2022/12/19 09:23:28;;;;;;;23.95;12.13;;;;;;;6.01;100.00;101449.09;5022866;28;20026;-70
2022/12/19 09:25:55;;;;;;;24.42;12.15;;;;;;;6.06;100.00;101448.41;5025962;28;20022;-70
2022/12/19 09:28:21;;;;;;;24.95;12.48;;;;;;;6.06;100.00;101439.66;5026095;28;20047;-68
2022/12/19 09:31:15;;;;;;;24.13;11.68;;;;;;;6.15;100.00;101447.81;5023617;28;20521;-71
2022/12/19 09:33:40;;;;;;;24.50;12.55;;;;;;;6.09;100.00;101450.25;5020595;28;20080;-67
2022/12/19 09:36:07;;;;;;;24.65;12.30;;;;;;;6.06;100.00;101445.78;5023465;28;20030;-73
2022/12/19 09:38:33;;;;;;;24.23;12.23;;;;;;;6.12;100.00;101450.34;5025324;28;20039;-74
2022/12/19 09:41:29;;;;;;;25.33;13.13;;;;;;;6.11;100.00;101441.56;5022462;28;20366;-67
2022/12/19 09:44:01;;;;;;;24.80;12.63;;;;;;;6.17;100.00;101446.13;5025554;28;20083;-65
2022/12/19 09:46:48;;;;;;;24.73;12.70;;;;;;;6.20;100.00;101445.34;5022294;28;20100;-64
2022/12/19 09:49:38;;;;;;;24.55;12.60;;;;;;;6.23;100.00;101443.72;5022888;28;20834;-64
2022/12/19 09:52:09;;;;;;;23.60;11.60;;;;;;;6.31;100.00;101443.06;5022338;28;20045;-65
2022/12/19 09:54:44;;;;;;;23.77;12.30;;;;;;;6.35;100.00;101439.66;5022608;28;20034;-65
2022/12/19 09:57:30;;;;;;;23.50;12.60;;;;;;;6.43;100.00;101441.69;5022886;28;20029;-64
2022/12/19 10:00:03;;;;;;;23.55;12.13;;;;;;;6.44;100.00;101448.72;5022962;28;20057;-66
2022/12/19 10:02:40;;;;;;;23.67;11.93;;;;;;;6.47;100.00;101454.94;5026753;28;20055;-66
2022/12/19 10:05:24;;;;;;;24.63;12.00;;;;;;;6.56;100.00;101461.34;5024183;28;20393;-73
2022/12/19 10:07:50;;;;;;;23.48;11.38;;;;;;;6.55;100.00;101462.22;5025076;28;20037;-74
2022/12/19 10:10:20;;;;;;;22.90;11.18;;;;;;;6.55;100.00;101467.47;5028362;28;20022;-73
2022/12/19 10:12:54;;;;;;;21.92;10.00;;;;;;;6.68;100.00;101454.69;5026081;28;20112;-74
2022/12/19 10:15:19;;;;;;;23.02;10.43;;;;;;;6.66;100.00;101445.88;5023286;28;20034;-70
2022/12/19 10:18:04;;;;;;;21.80;9.85;;;;;;;6.67;100.00;101450.25;5025139;28;20498;-69
2022/12/19 10:20:38;;;;;;;21.08;9.13;;;;;;;6.68;100.00;101455.56;5023170;28;20026;-72
2022/12/19 10:23:13;;;;;;;22.23;9.65;;;;;;;6.74;100.00;101452.22;5027832;28;20108;-69
2022/12/19 10:26:02;;;;;;;21.13;9.90;;;;;;;6.71;100.00;101449.53;5027218;28;20083;-68
2022/12/19 10:28:46;;;;;;;20.92;9.30;;;;;;;6.77;100.00;101450.59;5023426;28;20029;-72
2022/12/19 10:31:28;;;;;;;21.92;9.60;;;;;;;6.78;100.00;101459.38;5024412;28;20022;-74
2022/12/19 10:34:05;;;;;;;21.25;9.38;;;;;;;6.82;100.00;101458.63;5021730;28;20373;-72
2022/12/19 10:36:41;;;;;;;20.95;9.30;;;;;;;6.72;100.00;101472.34;5027663;28;20029;-70
2022/12/19 10:39:15;;;;;;;21.98;9.93;;;;;;;6.66;100.00;101456.38;5028325;28;20491;-69
2022/12/19 10:41:43;;;;;;;21.13;9.35;;;;;;;6.65;100.00;101454.59;5024904;28;20034;-71
2022/12/19 10:44:09;;;;;;;24.70;9.65;;;;;;;6.67;100.00;101463.41;5027286;28;20022;-69
2022/12/19 10:46:40;;;;;;;21.88;9.70;;;;;;;6.68;100.00;101455.56;5024763;28;20038;-67
2022/12/19 10:49:26;;;;;;;22.08;9.82;;;;;;;6.70;100.00;101458.22;5021113;28;20145;-70
2022/12/19 10:51:55;;;;;;;22.95;10.48;;;;;;;6.67;100.00;101466.03;5021536;28;20049;-71
2022/12/19 10:54:38;;;;;;;22.23;9.45;;;;;;;6.74;100.00;101470.63;5019903;28;20033;-73
2022/12/19 10:57:25;;;;;;;21.83;9.80;;;;;;;6.75;100.00;101472.41;5025690;28;20044;-75
2022/12/19 10:59:58;;;;;;;21.10;9.80;;;;;;;6.64;100.00;101451.09;5020158;28;20033;-66
2022/12/19 11:02:34;;;;;;;21.25;10.25;;;;;;;6.67;100.00;101458.16;5026696;28;20025;-76
2022/12/19 11:05:01;;;;;;;22.85;10.43;;;;;;;6.65;100.00;101444.09;5024716;28;20083;-68
2022/12/19 11:07:26;;;;;;;22.70;10.75;;;;;;;6.62;100.00;101451.00;5028058;28;20029;-72
2022/12/19 11:09:51;;;;;;;23.42;11.55;;;;;;;6.62;100.00;101444.88;5025783;28;20116;-73
2022/12/19 11:12:18;;;;;;;22.08;10.48;;;;;;;6.69;100.00;101451.22;5028348;28;20092;-66
2022/12/19 11:14:51;;;;;;;23.25;10.80;;;;;;;6.68;100.00;101444.19;5025030;28;20034;-68
2022/12/19 11:17:34;;;;;;;22.95;10.10;;;;;;;6.70;100.00;101438.13;5021065;28;20071;-71
2022/12/19 11:20:11;;;;;;;22.60;10.68;;;;;;;6.65;100.00;101428.31;5023791;28;20163;-71
2022/12/19 11:22:36;;;;;;;23.20;10.93;;;;;;;6.61;100.00;101422.97;5024792;28;20033;-70
2022/12/19 11:25:03;;;;;;;23.23;10.98;;;;;;;6.66;100.00;101424.88;5026568;28;20026;-67
2022/12/19 11:27:36;;;;;;;22.73;10.32;;;;;;;6.69;100.00;101423.19;5024652;28;20049;-70